Time;durP1;ratioP1;P1;durP2;ratioP2;P2;SDS_P1;SDS_P2;PMS_P1;PMS_P2;Temp;Humidity;BMP_temperature;BMP_pressure;BME280_temperature;BME280_humidity;BME280_pressure;Samples;Min_cycle;Max_cycle;Signal;HPM_P1;HPM_P2
2020/12/05 00:00:23;465855.00;1.55;803.06;0.00;0.00;0.62;;;;;10.70;1.00;;;;;;2273003;61;1547;-87
2020/12/05 00:02:50;512525.00;1.71;883.39;0.00;0.00;0.62;;;;;10.80;1.00;;;;;;2268442;61;1009;-88
2020/12/05 00:05:17;649608.00;2.17;1119.96;36192.00;0.12;63.30;;;;;9.70;1.00;;;;;;2272207;61;988;-89
2020/12/05 00:07:43;621809.00;2.07;1071.89;23800.00;0.08;41.85;;;;;9.60;1.00;;;;;;2263628;61;943;-87
2020/12/05 00:10:10;480657.00;1.60;828.53;0.00;0.00;0.62;;;;;10.30;1.00;;;;;;2263449;61;2005;-87
2020/12/05 00:12:37;662312.00;2.21;1141.94;0.00;0.00;0.62;;;;;10.80;1.00;;;;;;2263582;61;1598;-87
2020/12/05 00:15:04;479409.00;1.60;826.38;0.00;0.00;0.62;;;;;10.20;1.00;;;;;;2263635;61;1068;-87
2020/12/05 00:17:31;479963.00;1.60;827.33;0.00;0.00;0.62;;;;;9.40;1.00;;;;;;2263643;61;1096;-88
2020/12/05 00:19:58;523327.00;1.74;902.00;0.00;0.00;0.62;;;;;9.00;1.00;;;;;;2263607;61;1369;-87
2020/12/05 00:22:25;460648.00;1.54;794.10;0.00;0.00;0.62;;;;;9.60;1.00;;;;;;2263624;61;1017;-87
2020/12/05 00:24:51;408925.00;1.36;705.15;0.00;0.00;0.62;;;;;9.70;1.00;;;;;;2264602;61;1033;-86
2020/12/05 00:27:20;442418.00;1.47;762.74;0.00;0.00;0.62;;;;;10.30;1.00;;;;;;2272149;61;1021;-88
2020/12/05 00:29:47;514753.00;1.72;887.23;0.00;0.00;0.62;;;;;10.20;1.00;;;;;;2272012;61;1277;-87
2020/12/05 00:32:14;522341.00;1.74;900.30;0.00;0.00;0.62;;;;;10.20;1.00;;;;;;2272150;61;1926;-87
2020/12/05 00:34:40;537446.00;1.79;926.32;24725.00;0.08;43.45;;;;;10.60;1.00;;;;;;2272138;61;1148;-88
2020/12/05 00:37:07;500872.00;1.67;863.32;0.00;0.00;0.62;;;;;10.90;1.00;;;;;;2272140;61;985;-87
2020/12/05 00:39:33;362459.00;1.21;625.28;0.00;0.00;0.62;;;;;11.30;1.00;;;;;;2272119;61;1378;-87
2020/12/05 00:42:00;403982.00;1.35;696.65;0.00;0.00;0.62;;;;;11.70;1.00;;;;;;2272163;61;1120;-88
2020/12/05 00:44:27;351825.00;1.17;607.00;0.00;0.00;0.62;;;;;11.60;1.00;;;;;;2272125;61;1065;-88
2020/12/05 00:46:53;541398.00;1.80;933.13;0.00;0.00;0.62;;;;;11.70;1.00;;;;;;2272123;61;1026;-88
2020/12/05 00:49:20;595014.00;1.98;1025.61;0.00;0.00;0.62;;;;;11.80;1.00;;;;;;2272079;61;1384;-88
2020/12/05 00:51:47;535394.00;1.78;922.79;0.00;0.00;0.62;;;;;11.40;1.00;;;;;;2267416;61;1989;-87
2020/12/05 00:54:14;432965.00;1.44;746.48;0.00;0.00;0.62;;;;;10.90;1.00;;;;;;2255418;61;943;-88
2020/12/05 00:56:41;531406.00;1.77;915.91;0.00;0.00;0.62;;;;;11.20;1.00;;;;;;2252210;61;997;-88
2020/12/05 00:59:07;392698.00;1.31;677.25;0.00;0.00;0.62;;;;;11.50;1.00;;;;;;2255488;61;1397;-88
2020/12/05 01:01:35;365185.00;1.22;629.96;0.00;0.00;0.62;;;;;11.20;1.00;;;;;;2255487;61;1271;-88
2020/12/05 01:04:02;400158.00;1.33;690.08;0.00;0.00;0.62;;;;;11.10;1.00;;;;;;2256088;61;1041;-88
2020/12/05 01:06:28;446492.00;1.49;769.75;0.00;0.00;0.62;;;;;10.50;1.00;;;;;;2256150;61;991;-87
2020/12/05 01:08:55;567323.00;1.89;977.83;0.00;0.00;0.62;;;;;9.60;1.00;;;;;;2253317;61;1335;-88
2020/12/05 01:11:21;567656.00;1.89;978.40;0.00;0.00;0.62;;;;;9.20;1.00;;;;;;2261496;61;1919;-87
2020/12/05 01:13:49;666495.00;2.22;1149.18;0.00;0.00;0.62;;;;;9.00;1.00;;;;;;2272790;61;1082;-88
2020/12/05 01:16:18;562495.00;1.87;969.50;0.00;0.00;0.62;;;;;8.40;1.00;;;;;;2272728;61;1041;-87
2020/12/05 01:18:46;611823.00;2.04;1054.64;0.00;0.00;0.62;;;;;8.50;1.00;;;;;;2272743;61;1434;-88
2020/12/05 01:21:14;613012.00;2.04;1056.69;0.00;0.00;0.62;;;;;8.10;1.00;;;;;;2272702;61;1621;-88
2020/12/05 01:23:41;669900.00;2.23;1155.08;0.00;0.00;0.62;;;;;7.60;1.00;;;;;;2272834;61;1034;-88
2020/12/05 01:26:08;806835.00;2.69;1393.05;0.00;0.00;0.62;;;;;7.40;1.00;;;;;;2272691;61;1227;-88
2020/12/05 01:28:36;950636.00;3.17;1645.23;50717.00;0.17;88.43;;;;;7.40;1.00;;;;;;2272550;61;950;-87
2020/12/05 01:31:03;726589.00;2.42;1253.38;0.00;0.00;0.62;;;;;8.00;1.00;;;;;;2272657;61;1923;-88
2020/12/05 01:33:31;498395.00;1.66;859.06;0.00;0.00;0.62;;;;;8.40;1.00;;;;;;2272724;61;1004;-88
2020/12/05 01:35:58;579850.00;1.93;999.44;0.00;0.00;0.62;;;;;8.80;1.00;;;;;;2272717;61;1130;-88
2020/12/05 01:38:24;580111.00;1.93;999.89;0.00;0.00;0.62;;;;;8.80;1.00;;;;;;2272713;61;1142;-88
2020/12/05 01:40:52;650048.00;2.17;1120.72;0.00;0.00;0.62;;;;;8.50;1.00;;;;;;2268862;61;1412;-88
2020/12/05 01:43:19;635110.00;2.12;1094.88;16606.00;0.06;29.39;;;;;8.60;1.00;;;;;;2275540;61;1064;-88
2020/12/05 01:45:47;576962.00;1.92;994.46;0.00;0.00;0.62;;;;;9.10;1.00;;;;;;2272339;61;980;-89
2020/12/05 01:48:15;719815.00;2.40;1241.62;0.00;0.00;0.62;;;;;9.50;1.00;;;;;;2272246;61;971;-88
2020/12/05 01:50:42;778297.00;2.59;1343.30;0.00;0.00;0.62;;;;;9.70;1.00;;;;;;2275453;61;1923;-89
2020/12/05 01:53:09;516852.00;1.72;890.84;0.00;0.00;0.62;;;;;10.00;1.00;;;;;;2262273;61;1053;-89
2020/12/05 01:55:37;533638.00;1.78;919.76;0.00;0.00;0.62;;;;;9.80;1.00;;;;;;2268887;61;1016;-88
2020/12/05 01:58:04;497464.00;1.66;857.46;0.00;0.00;0.62;;;;;9.50;1.00;;;;;;2272613;61;993;-88
2020/12/05 02:00:31;587322.00;1.96;1012.33;0.00;0.00;0.62;;;;;9.10;1.00;;;;;;2272570;61;1287;-88
2020/12/05 02:02:57;636491.00;2.12;1097.27;0.00;0.00;0.62;;;;;8.50;1.00;;;;;;2272561;61;1057;-89
2020/12/05 02:05:41;461346.00;1.54;795.30;0.00;0.00;0.62;;;;;8.70;1.00;;;;;;2272601;61;1077;-89
2020/12/05 02:08:13;813565.00;2.71;1404.79;62945.00;0.21;109.57;;;;;8.80;1.00;;;;;;2272544;61;1081;-88
2020/12/05 02:10:46;642805.00;2.14;1108.19;0.00;0.00;0.62;;;;;8.50;1.00;;;;;;2263914;61;1994;-89
2020/12/05 02:13:20;541769.00;1.81;933.77;0.00;0.00;0.62;;;;;8.20;1.00;;;;;;2264040;61;1628;-88
2020/12/05 02:15:49;723667.00;2.41;1248.30;0.00;0.00;0.62;;;;;7.30;1.00;;;;;;2263802;61;1024;-88
2020/12/05 02:18:17;728304.00;2.43;1256.36;0.00;0.00;0.62;;;;;7.20;1.00;;;;;;2264017;61;1175;-87
2020/12/05 02:20:45;783577.00;2.61;1352.50;0.00;0.00;0.62;;;;;6.90;1.00;;;;;;2264035;61;1348;-90
2020/12/05 02:23:13;618794.00;2.06;1066.68;0.00;0.00;0.62;;;;;6.50;1.00;;;;;;2264010;61;1058;-87
2020/12/05 02:25:43;821500.00;2.74;1418.65;8867.00;0.03;15.99;;;;;6.60;1.00;;;;;;2251898;61;963;-87
2020/12/05 02:28:10;576497.00;1.92;993.65;0.00;0.00;0.62;;;;;6.80;1.00;;;;;;2254145;61;1079;-88
2020/12/05 02:30:37;574218.00;1.91;989.72;0.00;0.00;0.62;;;;;7.40;1.00;;;;;;2259900;61;2002;-88
2020/12/05 02:33:05;642710.00;2.14;1108.03;0.00;0.00;0.62;;;;;8.10;1.00;;;;;;2259935;61;992;-87
2020/12/05 02:35:32;561332.00;1.87;967.50;0.00;0.00;0.62;;;;;8.40;1.00;;;;;;2260032;61;977;-88
2020/12/05 02:38:07;573822.00;1.91;989.04;0.00;0.00;0.62;;;;;8.10;1.00;;;;;;2256628;61;1104;-88
2020/12/05 02:40:35;660666.00;2.20;1139.09;0.00;0.00;0.62;;;;;7.20;1.00;;;;;;2253262;61;1337;-89
2020/12/05 02:43:02;817406.00;2.72;1411.50;0.00;0.00;0.62;;;;;6.60;1.00;;;;;;2262653;61;1730;-88
2020/12/05 02:45:29;776701.00;2.59;1340.52;0.00;0.00;0.62;;;;;6.40;1.00;;;;;;2263871;61;1003;-89
2020/12/05 02:47:56;668316.00;2.23;1152.34;0.00;0.00;0.62;;;;;6.40;1.00;;;;;;2264010;61;1042;-88
2020/12/05 02:50:22;557195.00;1.86;960.36;0.00;0.00;0.62;;;;;7.10;1.00;;;;;;2263700;61;1921;-89
2020/12/05 02:52:49;684996.00;2.28;1181.23;0.00;0.00;0.62;;;;;6.90;1.00;;;;;;2263917;61;1175;-89
2020/12/05 02:55:15;508844.00;1.70;877.05;0.00;0.00;0.62;;;;;7.10;1.00;;;;;;2263787;61;1032;-88
2020/12/05 02:57:42;619154.00;2.06;1067.30;0.00;0.00;0.62;;;;;7.60;1.00;;;;;;2263274;61;1041;-87
2020/12/05 03:00:09;526308.00;1.75;907.13;0.00;0.00;0.62;;;;;7.70;1.00;;;;;;2263789;61;1374;-88
2020/12/05 03:02:35;506938.00;1.69;873.77;0.00;0.00;0.62;;;;;8.00;1.00;;;;;;2263904;61;1064;-88
2020/12/05 03:05:02;581996.00;1.94;1003.14;0.00;0.00;0.62;;;;;7.40;1.00;;;;;;2270683;61;1065;-88
2020/12/05 03:07:29;517637.00;1.73;892.19;0.00;0.00;0.62;;;;;7.90;1.00;;;;;;2264421;61;1200;-88
2020/12/05 03:09:55;498626.00;1.66;859.46;0.00;0.00;0.62;;;;;8.30;1.00;;;;;;2265163;61;1374;-87
2020/12/05 03:12:22;465486.00;1.55;802.42;0.00;0.00;0.62;;;;;8.50;1.00;;;;;;2265931;61;1999;-88
2020/12/05 03:14:49;569113.00;1.90;980.92;0.00;0.00;0.62;;;;;9.00;1.00;;;;;;2259991;61;1149;-88
2020/12/05 03:17:16;505959.00;1.69;872.08;0.00;0.00;0.62;;;;;9.40;1.00;;;;;;2266639;61;1118;-89
2020/12/05 03:19:42;498289.00;1.66;858.88;0.00;0.00;0.62;;;;;9.80;1.00;;;;;;2266429;61;1691;-88
2020/12/05 03:22:08;477544.00;1.59;823.17;0.00;0.00;0.62;;;;;10.30;1.00;;;;;;2266427;61;1104;-88
2020/12/05 03:24:36;392664.00;1.31;677.19;0.00;0.00;0.62;;;;;10.50;1.00;;;;;;2269970;61;1458;-88
2020/12/05 03:27:02;599150.00;2.00;1032.75;0.00;0.00;0.62;;;;;10.40;1.00;;;;;;2271162;61;1170;-88
2020/12/05 03:29:29;448945.00;1.50;773.97;0.00;0.00;0.62;;;;;9.80;1.00;;;;;;2271262;61;1278;-88
2020/12/05 03:31:59;482274.00;1.61;831.31;0.00;0.00;0.62;;;;;9.40;1.00;;;;;;2270677;61;1915;-89
2020/12/05 03:34:26;430731.00;1.44;742.64;0.00;0.00;0.62;;;;;9.00;1.00;;;;;;2270461;61;1377;-88
2020/12/05 03:36:52;436509.00;1.46;752.58;0.00;0.00;0.62;;;;;9.20;1.00;;;;;;2270556;61;1119;-88
2020/12/05 03:39:19;383605.00;1.28;661.62;0.00;0.00;0.62;;;;;9.00;1.00;;;;;;2271324;61;1321;-88
2020/12/05 03:41:45;514252.00;1.71;886.36;0.00;0.00;0.62;;;;;8.50;1.00;;;;;;2271411;61;1124;-88
2020/12/05 03:44:12;507310.00;1.69;874.41;0.00;0.00;0.62;;;;;8.70;1.00;;;;;;2271387;61;1540;-88
2020/12/05 03:46:38;497042.00;1.66;856.73;0.00;0.00;0.62;;;;;9.00;1.00;;;;;;2271747;61;1118;-88
2020/12/05 03:49:06;378763.00;1.26;653.30;0.00;0.00;0.62;;;;;9.10;1.00;;;;;;2272080;61;1451;-88
2020/12/05 03:51:32;481073.00;1.60;829.24;0.00;0.00;0.62;;;;;9.50;1.00;;;;;;2271926;61;2009;-88
2020/12/05 03:53:59;621885.00;2.07;1072.02;18688.00;0.06;33.00;;;;;9.70;1.00;;;;;;2271690;61;1204;-89
2020/12/05 03:56:25;445878.00;1.49;768.69;0.00;0.00;0.62;;;;;9.80;1.00;;;;;;2271623;61;1116;-89
2020/12/05 03:58:54;346510.00;1.16;597.86;0.00;0.00;0.62;;;;;10.20;1.00;;;;;;2267371;61;1315;-89
2020/12/05 04:01:22;401801.00;1.34;692.90;0.00;0.00;0.62;;;;;10.20;1.00;;;;;;2273967;61;1048;-88
2020/12/05 04:03:48;409084.00;1.36;705.42;0.00;0.00;0.62;;;;;10.30;1.00;;;;;;2270818;61;1168;-88
2020/12/05 04:06:16;349561.00;1.17;603.11;0.00;0.00;0.62;;;;;10.60;1.00;;;;;;2271481;61;1065;-88
2020/12/05 04:08:44;434107.00;1.45;748.45;0.00;0.00;0.62;;;;;10.70;1.00;;;;;;2271169;61;1181;-88
2020/12/05 04:11:11;395402.00;1.32;681.90;0.00;0.00;0.62;;;;;10.40;1.00;;;;;;2271701;61;2009;-89
2020/12/05 04:13:37;323607.00;1.08;558.50;0.00;0.00;0.62;;;;;10.30;1.00;;;;;;2271887;61;1719;-89
2020/12/05 04:16:04;429069.00;1.43;739.78;0.00;0.00;0.62;;;;;10.70;1.00;;;;;;2272007;61;1029;-89
2020/12/05 04:18:31;524524.00;1.75;904.06;41699.00;0.14;72.83;;;;;10.60;1.00;;;;;;2271948;61;1045;-89
2020/12/05 04:20:57;627926.00;2.09;1082.46;0.00;0.00;0.62;;;;;10.20;1.00;;;;;;2272151;61;1649;-88
2020/12/05 04:23:24;499328.00;1.66;860.67;0.00;0.00;0.62;;;;;10.40;1.00;;;;;;2272092;61;1115;-89
2020/12/05 04:25:51;439293.00;1.46;757.37;0.00;0.00;0.62;;;;;10.50;1.00;;;;;;2271912;61;1045;-89
2020/12/05 04:28:17;515921.00;1.72;889.24;0.00;0.00;0.62;;;;;10.50;1.00;;;;;;2272087;61;1109;-89
2020/12/05 04:30:44;430601.00;1.44;742.42;0.00;0.00;0.62;;;;;11.00;1.00;;;;;;2271876;61;1923;-89
2020/12/05 04:33:10;456313.00;1.52;786.64;0.00;0.00;0.62;;;;;10.90;1.00;;;;;;2272145;61;1049;-89
2020/12/05 04:35:37;423162.00;1.41;729.63;0.00;0.00;0.62;;;;;11.10;1.00;;;;;;2272088;61;1608;-89
2020/12/05 04:38:04;422640.00;1.41;728.73;0.00;0.00;0.62;;;;;11.30;1.00;;;;;;2272347;61;1218;-89
2020/12/05 04:40:31;329168.00;1.10;568.06;0.00;0.00;0.62;;;;;11.10;1.00;;;;;;2272608;61;1281;-89
2020/12/05 04:43:01;584087.00;1.95;1006.75;0.00;0.00;0.62;;;;;10.90;1.00;;;;;;2272801;61;1626;-89
2020/12/05 04:45:29;392453.00;1.31;676.83;0.00;0.00;0.62;;;;;10.90;1.00;;;;;;2272772;61;1466;-89
2020/12/05 04:47:57;483125.00;1.61;832.78;0.00;0.00;0.62;;;;;11.10;1.00;;;;;;2272792;61;1152;-89
2020/12/05 04:50:24;430203.00;1.43;741.73;0.00;0.00;0.62;;;;;11.40;1.00;;;;;;2272777;61;1740;-89
2020/12/05 04:52:52;335567.00;1.12;579.05;0.00;0.00;0.62;;;;;11.80;1.00;;;;;;2272877;61;1931;-89
2020/12/05 04:55:23;298234.00;0.99;514.88;0.00;0.00;0.62;;;;;12.00;1.00;;;;;;2272906;61;1141;-89
2020/12/05 04:58:00;404313.00;1.35;697.22;0.00;0.00;0.62;;;;;12.20;1.00;;;;;;2272892;61;948;-89
2020/12/05 05:00:27;340046.00;1.13;586.75;0.00;0.00;0.62;;;;;12.30;1.00;;;;;;2272848;61;1445;-89
2020/12/05 05:02:58;453162.00;1.51;781.22;0.00;0.00;0.62;;;;;12.40;1.00;;;;;;2272794;61;1743;-89
2020/12/05 05:05:26;392293.00;1.31;676.56;0.00;0.00;0.62;;;;;12.40;1.00;;;;;;2272384;61;1020;-90
2020/12/05 05:07:54;235077.00;0.78;406.28;0.00;0.00;0.62;;;;;12.50;1.00;;;;;;2264230;61;970;-89
2020/12/05 05:10:23;396222.00;1.32;683.31;0.00;0.00;0.62;;;;;12.20;1.00;;;;;;2260801;61;1393;-89
2020/12/05 05:12:52;370177.00;1.23;638.54;0.00;0.00;0.62;;;;;12.10;1.00;;;;;;2264192;61;2009;-88
2020/12/05 05:15:29;350729.00;1.17;605.11;0.00;0.00;0.62;;;;;12.30;1.00;;;;;;2264206;61;1471;-89
2020/12/05 05:17:56;265591.00;0.89;458.76;0.00;0.00;0.62;;;;;12.30;1.00;;;;;;2264264;61;1746;-90
2020/12/05 05:20:23;300603.00;1.00;518.96;0.00;0.00;0.62;;;;;12.00;1.00;;;;;;2264157;61;1609;-89
2020/12/05 05:22:52;224624.00;0.75;388.30;0.00;0.00;0.62;;;;;12.10;1.00;;;;;;2264262;61;930;-89
2020/12/05 05:25:21;366033.00;1.22;631.42;0.00;0.00;0.62;;;;;12.20;1.00;;;;;;2266354;61;1046;-89
2020/12/05 05:28:03;491983.00;1.64;848.02;0.00;0.00;0.62;;;;;11.80;1.00;;;;;;2272784;61;1114;-89
2020/12/05 05:30:29;605807.00;2.02;1044.25;0.00;0.00;0.62;;;;;11.50;1.00;;;;;;2260784;61;1420;-88
2020/12/05 05:33:06;305133.00;1.02;526.74;0.00;0.00;0.62;;;;;11.50;1.00;;;;;;2264154;61;1939;-90
2020/12/05 05:35:38;301453.00;1.00;520.42;0.00;0.00;0.62;;;;;11.40;1.00;;;;;;2264035;61;1626;-88
2020/12/05 05:38:05;414303.00;1.38;714.40;0.00;0.00;0.62;;;;;11.50;1.00;;;;;;2264128;61;1155;-89
2020/12/05 05:40:31;512111.00;1.71;882.68;0.00;0.00;0.62;;;;;11.60;1.00;;;;;;2257399;61;1384;-88
2020/12/05 05:42:58;483997.00;1.61;834.28;0.00;0.00;0.62;;;;;11.60;1.00;;;;;;2254184;61;1041;-89
2020/12/05 05:45:26;371371.00;1.24;640.59;0.00;0.00;0.62;;;;;11.70;1.00;;;;;;2264010;61;1542;-89
2020/12/05 05:48:00;371083.00;1.24;640.10;0.00;0.00;0.62;;;;;11.70;1.00;;;;;;2264050;61;1077;-88
2020/12/05 05:50:30;490788.00;1.64;845.97;0.00;0.00;0.62;;;;;11.70;1.00;;;;;;2263274;61;1517;-89
2020/12/05 05:52:58;414155.00;1.38;714.14;0.00;0.00;0.62;;;;;11.50;1.00;;;;;;2262322;61;2023;-88
2020/12/05 05:55:43;322012.00;1.07;555.76;0.00;0.00;0.62;;;;;11.80;1.00;;;;;;2262376;61;1258;-88
2020/12/05 05:58:11;391096.00;1.30;674.50;0.00;0.00;0.62;;;;;11.90;1.00;;;;;;2262399;61;1129;-88
2020/12/05 06:00:41;337543.00;1.13;582.45;0.00;0.00;0.62;;;;;11.70;1.00;;;;;;2262309;61;1404;-88
2020/12/05 06:03:22;266042.00;0.89;459.54;0.00;0.00;0.62;;;;;11.60;1.00;;;;;;2262167;61;1112;-88
2020/12/05 06:05:51;331192.00;1.10;571.53;0.00;0.00;0.62;;;;;11.90;1.00;;;;;;2262246;61;1065;-88
2020/12/05 06:08:19;191796.00;0.64;331.80;0.00;0.00;0.62;;;;;11.70;1.00;;;;;;2269533;61;1073;-88
2020/12/05 06:10:56;293555.00;0.98;506.84;0.00;0.00;0.62;;;;;11.80;1.00;;;;;;2270765;61;1995;-88
2020/12/05 06:13:25;371666.00;1.24;641.10;0.00;0.00;0.62;;;;;12.10;1.00;;;;;;2271318;61;1141;-88
2020/12/05 06:15:54;226653.00;0.76;391.79;0.00;0.00;0.62;;;;;12.20;1.00;;;;;;2271238;61;1089;-89
2020/12/05 06:18:21;291996.00;0.97;504.16;0.00;0.00;0.62;;;;;12.40;1.00;;;;;;2271228;61;1160;-88
2020/12/05 06:20:48;362815.00;1.21;625.89;0.00;0.00;0.62;;;;;12.70;1.00;;;;;;2271251;61;1459;-88
2020/12/05 06:23:27;332003.00;1.11;572.93;0.00;0.00;0.62;;;;;12.70;1.00;;;;;;2271343;61;1657;-88
2020/12/05 06:25:56;352583.00;1.18;608.30;0.00;0.00;0.62;;;;;12.70;1.00;;;;;;2271440;61;1101;-88
2020/12/05 06:28:24;378889.00;1.26;653.52;0.00;0.00;0.62;;;;;12.70;1.00;;;;;;2271025;61;1129;-88
2020/12/05 06:30:52;286254.00;0.95;494.29;0.00;0.00;0.62;;;;;12.50;1.00;;;;;;2270919;61;1923;-88
2020/12/05 06:33:49;302162.00;1.01;521.64;0.00;0.00;0.62;;;;;12.50;1.00;;;;;;2270690;61;1044;-88
2020/12/05 06:36:38;384615.00;1.28;663.36;91669.00;0.31;159.19;;;;;12.20;1.00;;;;;;2262926;61;1601;-88
2020/12/05 06:39:19;625686.00;2.09;1078.59;90006.00;0.30;156.32;;;;;12.20;1.00;;;;;;2270627;61;1995;-87
2020/12/05 06:41:48;419798.00;1.40;723.84;0.00;0.00;0.62;;;;;12.40;1.00;;;;;;2271574;61;1172;-88
2020/12/05 06:44:17;539188.00;1.80;929.32;0.00;0.00;0.62;;;;;12.40;1.00;;;;;;2271636;61;1073;-89
2020/12/05 06:46:58;818166.00;2.73;1412.82;88539.00;0.30;153.78;;;;;12.40;1.00;;;;;;2271758;61;1527;-88
2020/12/05 06:49:45;764560.00;2.55;1319.38;0.00;0.00;0.62;;;;;12.40;1.00;;;;;;2272111;61;1419;-87
2020/12/05 06:52:41;405183.00;1.35;698.72;0.00;0.00;0.62;;;;;12.60;1.00;;;;;;2271984;61;1931;-88
2020/12/05 06:55:11;212148.00;0.71;366.83;0.00;0.00;0.62;;;;;12.90;1.00;;;;;;2263813;61;1277;-89
2020/12/05 06:57:38;406544.00;1.36;701.06;0.00;0.00;0.62;;;;;12.80;1.00;;;;;;2270798;61;1530;-89
2020/12/05 07:00:14;619764.00;2.07;1068.36;0.00;0.00;0.62;;;;;12.60;1.00;;;;;;2272014;61;1301;-89
2020/12/05 07:02:50;422352.00;1.41;728.23;0.00;0.00;0.62;;;;;12.50;1.00;;;;;;2272383;61;1104;-88
2020/12/05 07:05:35;269223.00;0.90;465.01;0.00;0.00;0.62;;;;;12.40;1.00;;;;;;2272518;61;1056;-88
2020/12/05 07:08:18;474186.00;1.58;817.39;0.00;0.00;0.62;;;;;12.40;1.00;;;;;;2272420;61;1078;-88
2020/12/05 07:10:48;534848.00;1.78;921.85;0.00;0.00;0.62;;;;;11.80;1.00;;;;;;2272365;61;1435;-88
2020/12/05 07:13:17;535844.00;1.79;923.56;0.00;0.00;0.62;;;;;11.70;1.00;;;;;;2272441;61;1110;-89
2020/12/05 07:15:44;469254.00;1.56;808.91;0.00;0.00;0.62;;;;;11.50;1.00;;;;;;2272399;61;1127;-89
2020/12/05 07:18:19;949890.00;3.17;1643.92;25417.00;0.08;44.65;;;;;11.30;1.00;;;;;;2272458;61;1104;-88
2020/12/05 07:20:46;837483.00;2.79;1446.57;0.00;0.00;0.62;;;;;11.20;1.00;;;;;;2272389;61;1448;-88
2020/12/05 07:23:13;788459.00;2.63;1361.00;0.00;0.00;0.62;;;;;11.50;1.00;;;;;;2272364;61;1135;-87
2020/12/05 07:25:40;740993.00;2.47;1278.40;0.00;0.00;0.62;;;;;11.70;1.00;;;;;;2272341;61;1055;-88
2020/12/05 07:28:06;808029.00;2.69;1395.13;58033.00;0.19;101.08;;;;;11.90;1.00;;;;;;2271262;61;1079;-89
2020/12/05 07:30:33;973519.00;3.25;1685.63;86568.00;0.29;150.38;;;;;12.00;1.00;;;;;;2271112;61;2027;-89
2020/12/05 07:32:59;756842.00;2.52;1305.96;62005.00;0.21;107.94;;;;;12.00;1.00;;;;;;2271339;61;1935;-89
2020/12/05 07:35:26;917092.00;3.06;1586.16;80551.00;0.27;139.99;;;;;11.80;1.00;;;;;;2271612;61;1080;-90
2020/12/05 07:37:53;625348.00;2.08;1078.01;78063.00;0.26;135.69;;;;;11.90;1.00;;;;;;2271914;61;1102;-89
2020/12/05 07:40:27;626245.00;2.09;1079.56;78028.00;0.26;135.63;;;;;12.20;1.00;;;;;;2272182;61;1581;-90
2020/12/05 07:42:54;805100.00;2.68;1390.02;84902.00;0.28;147.50;;;;;11.90;1.00;;;;;;2272062;61;1023;-89
2020/12/05 07:45:21;745377.00;2.48;1286.02;88298.00;0.29;153.37;;;;;12.00;1.00;;;;;;2271981;61;1116;-89
2020/12/05 07:47:48;538979.00;1.80;928.96;85347.00;0.28;148.27;;;;;12.20;1.00;;;;;;2272162;61;958;-88
2020/12/05 07:50:15;1236338.00;4.12;2156.06;80691.00;0.27;140.23;;;;;12.40;1.00;;;;;;2272096;61;1244;-88
2020/12/05 07:52:42;729121.00;2.43;1257.78;88720.00;0.30;154.10;;;;;12.60;1.00;;;;;;2272186;61;1911;-87
2020/12/05 07:55:11;610383.00;2.03;1052.15;90727.00;0.30;157.56;;;;;12.60;1.00;;;;;;2272094;61;1104;-88
2020/12/05 07:57:50;450260.00;1.50;776.23;86687.00;0.29;150.59;;;;;12.50;1.00;;;;;;2272123;61;1021;-89
2020/12/05 08:00:19;620421.00;2.07;1069.49;83484.00;0.28;145.06;;;;;12.60;1.00;;;;;;2272193;61;1386;-89
2020/12/05 08:03:10;642887.00;2.14;1108.33;79064.00;0.26;137.42;;;;;12.70;1.00;;;;;;2271550;61;1637;-90
2020/12/05 08:05:50;408334.00;1.36;704.13;0.00;0.00;0.62;;;;;12.80;1.00;;;;;;2271643;61;1151;-89
2020/12/05 08:08:18;517061.00;1.72;891.20;0.00;0.00;0.62;;;;;13.00;1.00;;;;;;2271598;61;1718;-89
2020/12/05 08:10:46;616275.00;2.05;1062.33;99755.00;0.33;173.15;;;;;13.10;1.00;;;;;;2271539;61;1301;-90
2020/12/05 08:13:29;504520.00;1.68;869.61;87087.00;0.29;151.28;;;;;13.00;1.00;;;;;;2272037;61;2020;-90
2020/12/05 08:16:04;648959.00;2.16;1118.84;0.00;0.00;0.62;;;;;13.10;1.00;;;;;;2272186;61;1234;-89
2020/12/05 08:18:31;525259.00;1.75;905.32;0.00;0.00;0.62;;;;;13.00;1.00;;;;;;2271936;61;1052;-89
2020/12/05 08:21:00;710377.00;2.37;1225.24;0.00;0.00;0.62;;;;;12.90;1.00;;;;;;2271884;61;1401;-89
2020/12/05 08:23:28;455028.00;1.52;784.43;0.00;0.00;0.62;;;;;12.90;1.00;;;;;;2271746;61;1139;-88
2020/12/05 08:25:59;537289.00;1.79;926.05;0.00;0.00;0.62;;;;;12.70;1.00;;;;;;2271567;61;1018;-88
2020/12/05 08:28:29;598977.00;2.00;1032.45;0.00;0.00;0.62;;;;;12.60;1.00;;;;;;2271161;61;1164;-89
2020/12/05 08:30:57;545073.00;1.82;939.47;0.00;0.00;0.62;;;;;12.70;1.00;;;;;;2270813;61;1288;-89
2020/12/05 08:33:23;688086.00;2.29;1186.58;0.00;0.00;0.62;;;;;12.60;1.00;;;;;;2270584;61;1983;-89
2020/12/05 08:35:50;652224.00;2.17;1124.48;0.00;0.00;0.62;;;;;12.40;1.00;;;;;;2271002;61;1128;-89
2020/12/05 08:38:23;917082.00;3.06;1586.14;12115.00;0.04;21.61;;;;;12.50;1.00;;;;;;2272120;61;1116;-86
2020/12/05 08:41:01;952637.00;3.18;1648.76;82039.00;0.27;142.56;;;;;12.40;1.00;;;;;;2271925;61;1368;-87
2020/12/05 08:43:28;844282.00;2.81;1458.46;0.00;0.00;0.62;;;;;12.10;1.00;;;;;;2270759;61;1108;-88
2020/12/05 08:45:54;672965.00;2.24;1160.39;27031.00;0.09;47.44;;;;;12.30;1.00;;;;;;2271349;61;1122;-89
2020/12/05 08:48:21;1070947.00;3.57;1858.54;67573.00;0.23;117.57;;;;;12.50;1.00;;;;;;2271776;61;1128;-88
2020/12/05 08:50:49;806948.00;2.69;1393.24;79856.00;0.27;138.79;;;;;12.30;1.00;;;;;;2271284;61;1377;-88
2020/12/05 08:53:19;879597.00;2.93;1520.31;93969.00;0.31;163.16;;;;;12.30;1.00;;;;;;2271706;61;2017;-89
2020/12/05 08:55:48;772232.00;2.57;1332.74;0.00;0.00;0.62;;;;;12.30;1.00;;;;;;2272054;61;1104;-89
2020/12/05 08:58:16;545072.00;1.82;939.46;0.00;0.00;0.62;;;;;12.30;1.00;;;;;;2272177;61;1100;-88
2020/12/05 09:00:49;970086.00;3.23;1679.56;0.00;0.00;0.62;;;;;11.80;1.00;;;;;;2271788;61;1385;-88
2020/12/05 09:03:24;1263381.00;4.21;2205.24;78516.00;0.26;136.47;;;;;11.30;1.00;;;;;;2271948;61;1138;-89
2020/12/05 09:05:52;956114.00;3.19;1654.90;24237.00;0.08;42.61;;;;;10.80;1.00;;;;;;2272188;61;1119;-87
2020/12/05 09:08:22;910887.00;3.04;1575.25;0.00;0.00;0.62;;;;;10.40;1.00;;;;;;2272337;61;1122;-87
2020/12/05 09:10:51;750078.00;2.50;1294.19;0.00;0.00;0.62;;;;;9.70;1.00;;;;;;2271919;61;1387;-87
2020/12/05 09:13:18;848580.00;2.83;1465.98;0.00;0.00;0.62;;;;;9.80;1.00;;;;;;2272162;61;2061;-87
2020/12/05 09:16:01;848977.00;2.83;1466.68;5393.00;0.02;9.97;;;;;9.90;1.00;;;;;;2272107;61;1123;-87
2020/12/05 09:18:28;854484.00;2.85;1476.32;44762.00;0.15;78.13;;;;;9.70;1.00;;;;;;2272121;61;1125;-88
2020/12/05 09:20:55;567488.00;1.89;978.11;0.00;0.00;0.62;;;;;9.90;1.00;;;;;;2272005;61;1739;-88
2020/12/05 09:23:29;715097.00;2.38;1233.43;0.00;0.00;0.62;;;;;10.10;1.00;;;;;;2272165;61;1717;-87
2020/12/05 09:26:03;830710.00;2.77;1434.74;0.00;0.00;0.62;;;;;10.00;1.00;;;;;;2272365;61;1139;-88
2020/12/05 09:28:31;548417.00;1.83;945.23;0.00;0.00;0.62;;;;;9.60;1.00;;;;;;2272573;61;1086;-88
2020/12/05 09:30:58;776980.00;2.59;1341.01;0.00;0.00;0.62;;;;;10.00;1.00;;;;;;2272629;61;1376;-87
2020/12/05 09:33:25;611518.00;2.04;1054.11;5614.00;0.02;10.35;;;;;9.90;1.00;;;;;;2272359;61;2026;-89
2020/12/05 09:35:51;585294.00;1.95;1008.83;0.00;0.00;0.62;;;;;10.00;1.00;;;;;;2271794;61;1600;-88
2020/12/05 09:38:18;644010.00;2.15;1110.27;0.00;0.00;0.62;;;;;10.30;1.00;;;;;;2272062;61;1157;-88
2020/12/05 09:40:45;968778.00;3.23;1677.25;0.00;0.00;0.62;;;;;10.30;1.00;;;;;;2272152;61;1276;-88
2020/12/05 09:43:12;722739.00;2.41;1246.69;0.00;0.00;0.62;;;;;10.50;1.00;;;;;;2272366;61;1098;-88
2020/12/05 09:45:39;902563.00;3.01;1560.62;0.00;0.00;0.62;;;;;10.90;1.00;;;;;;2272410;61;2027;-88
2020/12/05 09:48:06;667236.00;2.22;1150.47;0.00;0.00;0.62;;;;;10.50;1.00;;;;;;2272112;61;1081;-88
2020/12/05 09:50:33;697233.00;2.32;1202.44;14930.00;0.05;26.49;;;;;10.50;1.00;;;;;;2272263;61;1624;-88
2020/12/05 09:53:00;875452.00;2.92;1513.05;17645.00;0.06;31.19;;;;;10.70;1.00;;;;;;2272522;61;1922;-88
2020/12/05 09:55:27;833347.00;2.78;1439.34;0.00;0.00;0.62;;;;;11.20;1.00;;;;;;2272412;61;1120;-88
2020/12/05 09:57:54;709138.00;2.36;1223.09;0.00;0.00;0.62;;;;;11.00;1.00;;;;;;2272414;61;1741;-88
2020/12/05 10:00:22;723127.00;2.41;1247.37;0.00;0.00;0.62;;;;;10.70;1.00;;;;;;2272563;61;1284;-88